Terminal Aerodrome Forecast
Issued by NWS Sioux Falls, SD

Home | Current Version | Previous Version | Graphics & Text | Print | Product List | Glossary On
Versions: 1 2 3 4 5 6 7 8 9 10 11 12 13 14 15 16 17 18 19 20 21 22 23 24 25 26 27 28 29 30 31 32
570
FTUS43 KFSD 271630 AAA
TAFSUX
TAF AMD
KSUX 271630Z 2717/2812 16004KT P6SM BKN015
     FM271730 17007KT P6SM SCT035
     FM280200 15005KT P6SM SCT050=

USA.gov is the U.S. government's official web portal to all federal, state and local government web resources and services.